This is the latest recevied weather packets stored in our database for station/object WA4OPQ-3. If no packets are shown the sender has not sent any weather packets the latest 10 day(s).
| Time | Temp. | Humidity | Pressure | Rain* | Wind** | Luminosity | Snow |
|---|---|---|---|---|---|---|---|
| 1777738796 | 17.78° C | 44% | 1016.7 hPa | 0 mm | - | 730 W/m² | - |
| 1777738191 | 17.78° C | 45% | 1016.7 hPa | 0 mm | - | 734 W/m² | - |
| 1777737585 | 17.22° C | 45% | 1016.8 hPa | 0 mm | - | 732 W/m² | - |
| 1777736981 | 17.22° C | 43% | 1016.8 hPa | 0 mm | - | 724 W/m² | - |
| 1777736376 | 17.22° C | 42% | 1016.8 hPa | 0 mm | - | 750 W/m² | - |
| 1777735771 | 18.33° C | 41% | 1016.9 hPa | 0 mm | - | 774 W/m² | - |
| 1777735165 | 16.67° C | 51% | 1016.8 hPa | 0 mm | - | 761 W/m² | - |
| 1777734561 | 17.22° C | 49% | 1016.9 hPa | 0 mm | - | 759 W/m² | - |
| 1777733956 | 16.67° C | 49% | 1016.7 hPa | 0 mm | - | 750 W/m² | - |
| 1777733350 | 16.11° C | 51% | 1016.6 hPa | 0 mm | - | 721 W/m² | - |
| 1777732747 | 16.11° C | 52% | 1016.5 hPa | 0 mm | - | 653 W/m² | - |
| 1777732142 | 15.56° C | 52% | 1016.4 hPa | 0 mm | - | 593 W/m² | - |
| 1777731535 | 15.56° C | 53% | 1016.5 hPa | 0 mm | - | 550 W/m² | - |
| 1777730931 | 15° C | 53% | 1016.6 hPa | 0 mm | - | 557 W/m² | - |
| 1777730325 | 14.44° C | 58% | 1016.5 hPa | 0 mm | - | 492 W/m² | - |
| 1777729721 | 12.78° C | 78% | 1016.4 hPa | 0 mm | - | 419 W/m² | - |
| 1777729117 | 12.22° C | 84% | 1016.3 hPa | 0 mm | - | 323 W/m² | - |
| 1777728512 | 11.11° C | 86% | 1016.4 hPa | 0 mm | - | 81 W/m² | - |
| 1777727906 | 10° C | 88% | 1016.2 hPa | 0 mm | - | 295 W/m² | - |
| 1777727301 | 8.89° C | 91% | 1016.4 hPa | 0 mm | - | 125 W/m² | - |
| 1777726696 | 8.33° C | 96% | 1016.6 hPa | 0 mm | - | 158 W/m² | - |
| 1777726090 | 6.67° C | 99% | 1016 hPa | 0 mm | - | 154 W/m² | - |
| 1777725486 | 5.56° C | 99% | 1016.3 hPa | 0 mm | - | 79 W/m² | - |
| 1777724884 | 5.56° C | 99% | 1016.3 hPa | 0 mm | - | 62 W/m² | - |
| 1777724277 | 3.89° C | 99% | 1016.2 hPa | 0 mm | - | 49 W/m² | - |
* Rain latest hour (hover to see other rain measurements)
** Current wind speed in m/s (hover to see current wind gust speed)